Time;durP1;ratioP1;P1;durP2;ratioP2;P2;SDS_P1;SDS_P2;PMS_P1;PMS_P2;Temp;Humidity;BMP_temperature;BMP_pressure;BME280_temperature;BME280_humidity;BME280_pressure;Samples;Min_cycle;Max_cycle;Signal;HPM_P1;HPM_P2
2023/10/06 00:01:13;;;;;;;;;;;18.10;92.00;;;;;;4017058;29;19963;-53
2023/10/06 00:03:58;;;;;;;;;;;18.10;92.40;;;;;;4034698;29;19959;-53
2023/10/06 00:06:39;;;;;;;;;;;18.10;91.90;;;;;;4020960;29;19935;-54
2023/10/06 00:09:28;;;;;;;;;;;18.10;91.90;;;;;;4026186;29;19943;-55
2023/10/06 00:12:13;;;;;;;;;;;18.10;91.80;;;;;;4024163;29;19954;-51
2023/10/06 00:14:57;;;;;;;;;;;18.10;91.80;;;;;;4025303;29;19935;-53
2023/10/06 00:17:39;;;;;;;;;;;18.10;91.80;;;;;;4020486;29;19979;-53
2023/10/06 00:20:26;;;;;;;;;;;18.10;91.90;;;;;;3997038;29;19980;-53
2023/10/06 00:23:09;;;;;;;;;;;18.10;91.90;;;;;;4019192;29;19939;-53
2023/10/06 00:25:54;;;;;;;;;;;18.10;91.90;;;;;;4026784;29;19954;-51
2023/10/06 00:28:36;;;;;;;;;;;18.10;91.80;;;;;;4024953;29;20063;-50
2023/10/06 00:31:19;;;;;;;;;;;18.10;91.80;;;;;;4021785;29;20017;-50
2023/10/06 00:34:00;;;;;;;;;;;18.10;91.90;;;;;;4019563;29;20003;-51
2023/10/06 00:36:42;;;;;;;;;;;18.10;91.80;;;;;;4025106;29;19983;-53
2023/10/06 00:39:23;;;;;;;;;;;18.10;91.90;;;;;;4023050;29;19935;-52
2023/10/06 00:42:04;;;;;;;;;;;18.00;91.80;;;;;;4019383;29;19947;-52
2023/10/06 00:44:46;;;;;;;;;;;18.00;91.70;;;;;;4010686;29;20395;-49
2023/10/06 00:47:38;;;;;;;;;;;18.10;91.80;;;;;;4002045;29;19935;-51
2023/10/06 00:50:22;;;;;;;;;;;18.10;91.90;;;;;;4014646;29;19946;-56
2023/10/06 00:53:05;;;;;;;;;;;18.10;91.70;;;;;;4011427;29;19939;-54
2023/10/06 00:55:46;;;;;;;;;;;18.00;91.80;;;;;;4022809;29;20446;-53
2023/10/06 00:58:28;;;;;;;;;;;18.00;91.80;;;;;;4019177;29;20044;-51
2023/10/06 01:01:12;;;;;;;;;;;18.00;91.80;;;;;;4026985;29;20050;-53
2023/10/06 01:04:01;;;;;;;;;;;18.00;91.80;;;;;;4016842;29;19935;-49
2023/10/06 01:06:42;;;;;;;;;;;18.00;91.70;;;;;;4016717;29;19939;-53
2023/10/06 01:09:30;;;;;;;;;;;18.00;91.70;;;;;;4027475;29;19935;-50
2023/10/06 01:12:17;;;;;;;;;;;18.00;91.70;;;;;;4026339;29;19935;-51
2023/10/06 01:15:09;;;;;;;;;;;18.00;91.80;;;;;;4013761;29;19935;-52
2023/10/06 01:17:53;;;;;;;;;;;18.00;91.80;;;;;;4012866;29;20032;-49
2023/10/06 01:20:41;;;;;;;;;;;18.00;91.80;;;;;;4004560;29;19948;-51
2023/10/06 01:23:27;;;;;;;;;;;18.00;91.80;;;;;;4025228;29;19943;-54
2023/10/06 01:26:09;;;;;;;;;;;18.00;91.90;;;;;;4024174;29;19935;-60
2023/10/06 01:28:51;;;;;;;;;;;18.00;91.80;;;;;;4010609;29;19934;-51
2023/10/06 01:31:37;;;;;;;;;;;18.00;91.80;;;;;;4020264;29;19935;-54
2023/10/06 01:34:18;;;;;;;;;;;18.00;91.80;;;;;;4026461;29;20019;-53
2023/10/06 01:37:03;;;;;;;;;;;18.00;91.70;;;;;;4026000;29;20378;-54
2023/10/06 01:39:48;;;;;;;;;;;18.00;91.70;;;;;;4025047;29;19935;-50
2023/10/06 01:42:30;;;;;;;;;;;18.00;91.70;;;;;;4023522;29;20402;-53
2023/10/06 01:45:15;;;;;;;;;;;18.00;91.70;;;;;;4027695;29;19960;-49
2023/10/06 01:47:56;;;;;;;;;;;18.00;91.70;;;;;;4007013;29;19938;-50
2023/10/06 01:50:39;;;;;;;;;;;18.00;91.70;;;;;;4024264;29;19935;-53
2023/10/06 01:53:20;;;;;;;;;;;18.00;91.70;;;;;;4022581;29;20071;-52
2023/10/06 01:56:06;;;;;;;;;;;18.00;91.60;;;;;;4029170;29;19935;-52
2023/10/06 01:58:50;;;;;;;;;;;18.00;91.60;;;;;;4026951;29;19935;-51
2023/10/06 02:01:32;;;;;;;;;;;18.00;91.70;;;;;;4008811;29;20056;-52
2023/10/06 02:04:14;;;;;;;;;;;17.90;91.70;;;;;;4031883;29;19935;-51
2023/10/06 02:06:54;;;;;;;;;;;17.90;91.70;;;;;;4027735;29;20383;-51
2023/10/06 02:09:36;;;;;;;;;;;17.90;91.70;;;;;;4040381;29;20398;-53
2023/10/06 02:12:19;;;;;;;;;;;17.90;91.80;;;;;;4039228;29;20035;-48
2023/10/06 02:15:00;;;;;;;;;;;17.90;91.60;;;;;;4024203;29;19938;-52
2023/10/06 02:17:41;;;;;;;;;;;17.90;91.50;;;;;;4042310;29;20083;-51
2023/10/06 02:20:30;;;;;;;;;;;17.90;91.70;;;;;;4038381;29;19986;-53
2023/10/06 02:23:13;;;;;;;;;;;17.90;91.70;;;;;;4025690;29;19958;-51
2023/10/06 02:25:57;;;;;;;;;;;17.90;91.60;;;;;;4023160;29;20413;-51
2023/10/06 02:28:43;;;;;;;;;;;17.90;91.60;;;;;;4041049;29;19949;-52
2023/10/06 02:31:26;;;;;;;;;;;17.90;91.60;;;;;;4041604;29;19966;-51
2023/10/06 02:34:12;;;;;;;;;;;17.90;91.70;;;;;;4035725;29;20513;-52
2023/10/06 02:36:54;;;;;;;;;;;17.90;91.70;;;;;;4026002;29;19934;-53
2023/10/06 02:39:37;;;;;;;;;;;17.90;91.60;;;;;;4030369;29;20449;-53
2023/10/06 02:42:20;;;;;;;;;;;17.90;91.70;;;;;;4024702;29;20403;-53
2023/10/06 02:45:06;;;;;;;;;;;17.90;91.80;;;;;;4010978;29;20398;-52
2023/10/06 02:47:47;;;;;;;;;;;17.90;91.80;;;;;;4011838;29;19942;-54
2023/10/06 02:50:33;;;;;;;;;;;17.90;91.80;;;;;;4042461;29;19934;-55
2023/10/06 02:53:14;;;;;;;;;;;17.90;91.80;;;;;;4026785;29;20068;-54
2023/10/06 02:55:56;;;;;;;;;;;17.90;91.80;;;;;;4028309;29;19938;-54
2023/10/06 02:58:40;;;;;;;;;;;17.90;91.80;;;;;;4037872;29;19958;-55
2023/10/06 03:01:23;;;;;;;;;;;17.90;91.80;;;;;;4030860;29;19934;-53
2023/10/06 03:04:07;;;;;;;;;;;17.90;91.90;;;;;;4042815;29;19946;-51
2023/10/06 03:06:53;;;;;;;;;;;17.90;91.90;;;;;;4028552;29;20378;-54
2023/10/06 03:09:38;;;;;;;;;;;17.90;91.90;;;;;;4038131;29;19942;-53
2023/10/06 03:12:26;;;;;;;;;;;17.80;91.80;;;;;;4024719;29;19935;-50
2023/10/06 03:15:28;;;;;;;;;;;17.80;91.90;;;;;;4024271;29;19978;-55
2023/10/06 03:18:12;;;;;;;;;;;17.80;91.80;;;;;;4023339;29;20383;-53
2023/10/06 03:21:00;;;;;;;;;;;17.80;91.90;;;;;;4030284;29;20303;-54
2023/10/06 03:23:44;;;;;;;;;;;17.80;91.90;;;;;;4040138;29;19997;-54
2023/10/06 03:26:30;;;;;;;;;;;17.80;91.80;;;;;;4027326;29;19969;-51
2023/10/06 03:29:28;;;;;;;;;;;17.80;91.80;;;;;;4028648;29;19938;-54
2023/10/06 03:32:13;;;;;;;;;;;17.80;91.90;;;;;;4006553;29;19983;-53
2023/10/06 03:34:59;;;;;;;;;;;17.80;92.30;;;;;;4031056;29;19942;-54
2023/10/06 03:37:51;;;;;;;;;;;17.80;91.80;;;;;;4039969;29;19947;-53
2023/10/06 03:40:42;;;;;;;;;;;17.80;91.80;;;;;;4033301;29;19937;-54
2023/10/06 03:43:34;;;;;;;;;;;17.80;91.90;;;;;;4023532;29;19982;-53
2023/10/06 03:46:18;;;;;;;;;;;17.80;91.90;;;;;;4038265;29;19943;-54
2023/10/06 03:49:03;;;;;;;;;;;17.80;91.90;;;;;;4016526;29;19961;-53
2023/10/06 03:51:44;;;;;;;;;;;17.80;91.90;;;;;;4035590;29;20014;-51
2023/10/06 03:54:25;;;;;;;;;;;17.80;91.90;;;;;;4043020;29;20067;-55
2023/10/06 03:57:06;;;;;;;;;;;17.80;91.80;;;;;;4026157;29;19968;-54
2023/10/06 03:59:47;;;;;;;;;;;17.80;91.90;;;;;;4036989;29;20583;-54
2023/10/06 04:02:38;;;;;;;;;;;17.80;91.90;;;;;;4042100;29;19934;-53
2023/10/06 04:05:21;;;;;;;;;;;17.80;91.90;;;;;;4041185;29;19939;-54
2023/10/06 04:08:07;;;;;;;;;;;17.80;91.90;;;;;;4039486;29;19939;-52
2023/10/06 04:10:53;;;;;;;;;;;17.80;91.90;;;;;;4027573;29;19982;-51
2023/10/06 04:13:33;;;;;;;;;;;17.80;92.00;;;;;;4036545;29;19939;-54
2023/10/06 04:16:14;;;;;;;;;;;17.80;92.00;;;;;;4042347;29;19958;-55
2023/10/06 04:18:55;;;;;;;;;;;17.80;91.90;;;;;;4028136;29;20263;-55
2023/10/06 04:21:36;;;;;;;;;;;17.80;91.90;;;;;;4037568;29;19935;-55
2023/10/06 04:24:18;;;;;;;;;;;17.80;91.90;;;;;;4030166;29;20287;-54
2023/10/06 04:26:59;;;;;;;;;;;17.80;92.00;;;;;;4040380;29;20275;-52
2023/10/06 04:29:40;;;;;;;;;;;17.70;92.00;;;;;;4037382;29;20030;-50
2023/10/06 04:32:21;;;;;;;;;;;17.80;92.00;;;;;;4029317;29;19938;-55
2023/10/06 04:35:02;;;;;;;;;;;17.70;92.10;;;;;;4041291;29;20062;-52
2023/10/06 04:37:42;;;;;;;;;;;17.70;92.20;;;;;;4041801;29;19935;-55
2023/10/06 04:40:25;;;;;;;;;;;17.70;92.20;;;;;;4018987;29;20059;-53
2023/10/06 04:43:05;;;;;;;;;;;17.70;92.30;;;;;;4034795;29;19941;-55
2023/10/06 04:45:47;;;;;;;;;;;17.70;92.20;;;;;;4025427;29;20406;-54
2023/10/06 04:48:29;;;;;;;;;;;17.70;92.30;;;;;;4038473;29;20573;-52
2023/10/06 04:51:10;;;;;;;;;;;17.70;92.30;;;;;;4036551;29;19974;-52
2023/10/06 04:53:51;;;;;;;;;;;17.70;92.30;;;;;;4040642;29;19934;-54
2023/10/06 04:56:33;;;;;;;;;;;17.70;92.30;;;;;;4041914;29;20382;-54
2023/10/06 04:59:14;;;;;;;;;;;17.70;92.30;;;;;;4041123;29;19945;-54
2023/10/06 05:01:55;;;;;;;;;;;17.70;92.30;;;;;;4041763;29;19939;-51
2023/10/06 05:04:35;;;;;;;;;;;17.70;92.30;;;;;;4039656;29;19935;-54
2023/10/06 05:07:16;;;;;;;;;;;17.70;92.80;;;;;;4038045;29;19939;-51
2023/10/06 05:09:57;;;;;;;;;;;17.70;92.30;;;;;;4035398;29;19942;-53
2023/10/06 05:12:39;;;;;;;;;;;17.70;92.40;;;;;;4043479;29;20520;-56
2023/10/06 05:15:23;;;;;;;;;;;17.70;92.40;;;;;;4044533;29;20076;-56
2023/10/06 05:18:05;;;;;;;;;;;17.80;92.40;;;;;;4043831;29;19938;-52
2023/10/06 05:20:46;;;;;;;;;;;17.80;92.40;;;;;;4037874;29;19975;-54
2023/10/06 05:23:26;;;;;;;;;;;17.80;92.30;;;;;;4044496;29;20011;-55
2023/10/06 05:26:10;;;;;;;;;;;17.80;92.30;;;;;;4041666;29;19951;-56
2023/10/06 05:28:52;;;;;;;;;;;17.70;92.30;;;;;;4039887;29;20021;-53
2023/10/06 05:31:33;;;;;;;;;;;17.70;92.30;;;;;;4037034;29;19986;-52
2023/10/06 05:34:17;;;;;;;;;;;17.70;92.20;;;;;;4042888;29;19943;-54
2023/10/06 05:37:00;;;;;;;;;;;17.70;92.20;;;;;;4032747;29;20022;-55
2023/10/06 05:39:41;;;;;;;;;;;17.70;92.20;;;;;;4039728;29;19942;-54
2023/10/06 05:42:22;;;;;;;;;;;17.70;92.30;;;;;;4046906;29;20087;-53
2023/10/06 05:45:12;;;;;;;;;;;17.70;92.30;;;;;;4043592;29;19978;-55
2023/10/06 05:47:54;;;;;;;;;;;17.70;92.30;;;;;;4039546;29;19934;-52
2023/10/06 05:50:35;;;;;;;;;;;17.70;92.20;;;;;;4038963;29;20051;-53
2023/10/06 05:53:19;;;;;;;;;;;17.70;92.20;;;;;;4036876;29;20043;-55
2023/10/06 05:56:02;;;;;;;;;;;17.70;92.20;;;;;;4043210;29;19955;-51
2023/10/06 05:58:43;;;;;;;;;;;17.70;92.20;;;;;;4038645;29;19934;-52
2023/10/06 06:01:28;;;;;;;;;;;17.70;92.60;;;;;;4035426;29;19935;-55
2023/10/06 06:04:12;;;;;;;;;;;17.60;92.30;;;;;;4036684;29;20022;-52
2023/10/06 06:06:56;;;;;;;;;;;17.70;92.40;;;;;;4041994;29;19938;-55
2023/10/06 06:09:36;;;;;;;;;;;17.60;92.40;;;;;;4040789;29;20405;-53
2023/10/06 06:12:21;;;;;;;;;;;17.70;92.40;;;;;;4039124;29;19934;-52
2023/10/06 06:15:03;;;;;;;;;;;17.60;92.30;;;;;;4040199;29;20026;-52
2023/10/06 06:17:46;;;;;;;;;;;17.70;92.40;;;;;;4036560;29;20401;-56
2023/10/06 06:20:27;;;;;;;;;;;17.70;92.70;;;;;;4038265;29;19938;-52
2023/10/06 06:23:08;;;;;;;;;;;17.70;93.10;;;;;;4043753;29;19939;-50
2023/10/06 06:25:49;;;;;;;;;;;17.70;93.40;;;;;;4041877;29;19934;-49
2023/10/06 06:28:30;;;;;;;;;;;17.70;93.40;;;;;;4038723;29;19947;-50
2023/10/06 06:31:16;;;;;;;;;;;17.70;93.20;;;;;;4037439;29;19937;-51
2023/10/06 06:33:59;;;;;;;;;;;17.70;93.30;;;;;;4043818;29;19953;-51
2023/10/06 06:36:40;;;;;;;;;;;17.70;93.60;;;;;;4041915;29;19951;-53
2023/10/06 06:39:21;;;;;;;;;;;17.70;93.10;;;;;;4040202;29;19939;-50
2023/10/06 06:42:04;;;;;;;;;;;17.70;93.00;;;;;;4040903;29;19938;-50
2023/10/06 06:44:47;;;;;;;;;;;17.70;93.00;;;;;;4042859;29;19942;-50
2023/10/06 06:47:29;;;;;;;;;;;17.60;92.90;;;;;;4039977;29;20071;-51
2023/10/06 06:50:13;;;;;;;;;;;17.60;92.80;;;;;;4043697;29;19939;-54
2023/10/06 06:52:54;;;;;;;;;;;17.60;92.70;;;;;;4041291;29;19938;-50
2023/10/06 06:55:35;;;;;;;;;;;17.60;93.20;;;;;;4039495;29;19938;-50
2023/10/06 06:58:17;;;;;;;;;;;17.60;92.80;;;;;;4036805;29;19966;-51
2023/10/06 07:00:58;;;;;;;;;;;17.60;92.80;;;;;;4042504;29;19995;-53
2023/10/06 07:03:38;;;;;;;;;;;17.60;92.90;;;;;;4040622;29;19974;-47
2023/10/06 07:06:21;;;;;;;;;;;17.60;92.80;;;;;;4042944;29;19935;-46
2023/10/06 07:09:02;;;;;;;;;;;17.60;92.90;;;;;;4034933;29;20019;-48
2023/10/06 07:11:43;;;;;;;;;;;17.60;92.90;;;;;;4031165;29;19974;-48
2023/10/06 07:14:27;;;;;;;;;;;17.60;92.90;;;;;;4042496;29;19934;-49
2023/10/06 07:17:08;;;;;;;;;;;17.60;92.90;;;;;;4041096;29;20418;-46
2023/10/06 07:19:48;;;;;;;;;;;17.60;93.30;;;;;;4041705;29;19986;-46
2023/10/06 07:22:31;;;;;;;;;;;17.60;92.90;;;;;;4041355;29;19934;-48
2023/10/06 07:25:12;;;;;;;;;;;17.60;92.90;;;;;;4041801;29;19934;-46
2023/10/06 07:27:55;;;;;;;;;;;17.60;92.90;;;;;;4041898;29;19938;-47
2023/10/06 07:30:36;;;;;;;;;;;17.60;92.90;;;;;;4039994;29;19938;-47
2023/10/06 07:33:17;;;;;;;;;;;17.60;93.00;;;;;;4034707;29;19942;-45
2023/10/06 07:35:58;;;;;;;;;;;17.60;93.00;;;;;;4034209;29;20314;-46
2023/10/06 07:38:40;;;;;;;;;;;17.60;93.00;;;;;;4040507;29;20365;-52
2023/10/06 07:41:23;;;;;;;;;;;17.60;93.10;;;;;;4024345;29;19947;-47
2023/10/06 07:44:05;;;;;;;;;;;17.70;93.50;;;;;;4036441;29;20019;-49
2023/10/06 07:46:47;;;;;;;;;;;17.70;93.00;;;;;;4042236;29;19938;-53
2023/10/06 07:49:34;;;;;;;;;;;17.70;92.90;;;;;;4041711;29;20287;-51
2023/10/06 07:52:17;;;;;;;;;;;17.70;93.00;;;;;;4038101;29;20011;-50
2023/10/06 07:54:59;;;;;;;;;;;17.70;92.90;;;;;;4037675;29;19934;-51
2023/10/06 07:57:42;;;;;;;;;;;17.70;92.90;;;;;;4034732;29;19939;-46
2023/10/06 08:00:27;;;;;;;;;;;17.70;93.00;;;;;;4041966;29;19934;-47
2023/10/06 08:03:10;;;;;;;;;;;17.70;93.00;;;;;;4039208;29;19934;-46
2023/10/06 08:05:51;;;;;;;;;;;17.70;93.00;;;;;;4037705;29;20069;-50
2023/10/06 08:08:33;;;;;;;;;;;17.70;93.00;;;;;;4037997;29;20505;-48
2023/10/06 08:11:15;;;;;;;;;;;17.70;93.10;;;;;;4038422;29;19978;-47
2023/10/06 08:13:56;;;;;;;;;;;17.70;93.10;;;;;;4036340;29;19966;-47
2023/10/06 08:16:37;;;;;;;;;;;17.70;93.20;;;;;;4035891;29;19934;-50
2023/10/06 08:19:18;;;;;;;;;;;17.70;93.20;;;;;;4041529;29;20613;-48
2023/10/06 08:21:59;;;;;;;;;;;17.70;93.20;;;;;;4038973;29;20092;-48
2023/10/06 08:24:43;;;;;;;;;;;17.70;93.30;;;;;;4037574;29;19947;-47
2023/10/06 08:27:26;;;;;;;;;;;17.70;93.30;;;;;;4034496;29;19938;-46
2023/10/06 08:30:16;;;;;;;;;;;17.70;93.30;;;;;;4041931;29;19979;-50
2023/10/06 08:32:57;;;;;;;;;;;17.70;93.30;;;;;;4024291;29;20015;-46
2023/10/06 08:35:40;;;;;;;;;;;17.70;93.30;;;;;;4037232;29;19934;-47
2023/10/06 08:38:20;;;;;;;;;;;17.70;93.40;;;;;;4025493;29;19970;-50
2023/10/06 08:41:02;;;;;;;;;;;17.70;93.40;;;;;;4024723;29;19938;-50
2023/10/06 08:43:46;;;;;;;;;;;17.70;93.40;;;;;;4039060;29;20291;-50
2023/10/06 08:46:27;;;;;;;;;;;17.70;93.40;;;;;;4044822;29;19934;-48
2023/10/06 08:49:08;;;;;;;;;;;17.70;93.80;;;;;;4038782;29;20385;-47
2023/10/06 08:51:50;;;;;;;;;;;17.70;93.40;;;;;;4045646;29;20095;-48
2023/10/06 08:54:31;;;;;;;;;;;17.70;93.40;;;;;;4031399;29;20055;-49
2023/10/06 08:57:12;;;;;;;;;;;17.70;93.40;;;;;;4040538;29;19942;-48
2023/10/06 08:59:56;;;;;;;;;;;17.70;93.50;;;;;;4041404;29;20394;-47
2023/10/06 09:02:37;;;;;;;;;;;17.70;93.50;;;;;;4038143;29;19934;-46
2023/10/06 09:05:18;;;;;;;;;;;17.70;93.40;;;;;;4044630;29;20017;-48
2023/10/06 09:07:59;;;;;;;;;;;17.70;93.50;;;;;;4042156;29;19934;-51
2023/10/06 09:10:41;;;;;;;;;;;17.80;93.60;;;;;;4040332;29;20294;-47
2023/10/06 09:13:22;;;;;;;;;;;17.80;93.60;;;;;;4037776;29;19963;-49
2023/10/06 09:16:06;;;;;;;;;;;17.80;93.50;;;;;;4045019;29;19934;-48
2023/10/06 09:19:00;;;;;;;;;;;17.80;93.50;;;;;;4044846;29;19963;-47
2023/10/06 09:22:00;;;;;;;;;;;17.80;93.50;;;;;;4040055;29;19986;-46
2023/10/06 09:24:41;;;;;;;;;;;17.80;93.60;;;;;;4040443;29;19934;-46
2023/10/06 09:27:25;;;;;;;;;;;17.80;93.60;;;;;;4038420;29;19939;-47
2023/10/06 09:30:07;;;;;;;;;;;17.80;93.60;;;;;;4043059;29;19938;-47
2023/10/06 09:33:01;;;;;;;;;;;17.80;93.50;;;;;;4043821;29;19934;-48
2023/10/06 09:35:43;;;;;;;;;;;17.90;93.60;;;;;;4039827;29;20001;-46
2023/10/06 09:38:28;;;;;;;;;;;17.90;94.00;;;;;;4040264;29;20063;-49
2023/10/06 09:41:09;;;;;;;;;;;17.90;93.60;;;;;;4038944;29;19953;-48
2023/10/06 09:43:53;;;;;;;;;;;17.90;93.60;;;;;;4044067;29;20020;-47
2023/10/06 09:46:34;;;;;;;;;;;17.90;93.60;;;;;;4042548;29;20561;-49
2023/10/06 09:49:19;;;;;;;;;;;17.90;93.60;;;;;;4040831;29;19995;-52
2023/10/06 09:52:02;;;;;;;;;;;17.90;93.60;;;;;;4038158;29;20026;-52
2023/10/06 09:54:43;;;;;;;;;;;17.90;93.60;;;;;;4043609;29;20008;-52
2023/10/06 09:57:24;;;;;;;;;;;17.90;93.70;;;;;;4041474;29;19938;-54
2023/10/06 10:00:15;;;;;;;;;;;18.00;93.70;;;;;;4043764;29;19938;-50
2023/10/06 10:02:57;;;;;;;;;;;18.00;93.80;;;;;;4045875;29;19989;-53
2023/10/06 10:05:39;;;;;;;;;;;18.00;93.80;;;;;;4043868;29;19950;-52
2023/10/06 10:08:22;;;;;;;;;;;18.00;93.80;;;;;;4040782;29;19982;-51
2023/10/06 10:11:06;;;;;;;;;;;18.10;93.80;;;;;;4041141;29;19978;-54
2023/10/06 10:14:11;;;;;;;;;;;18.10;93.90;;;;;;4038762;29;19939;-54
2023/10/06 10:17:07;;;;;;;;;;;18.10;93.90;;;;;;4042362;29;20056;-52
2023/10/06 10:19:48;;;;;;;;;;;18.10;93.80;;;;;;4036777;29;19937;-55
2023/10/06 10:22:32;;;;;;;;;;;18.10;93.80;;;;;;4043800;29;20059;-50
2023/10/06 10:25:13;;;;;;;;;;;18.10;93.80;;;;;;4042858;29;19937;-53
2023/10/06 10:28:11;;;;;;;;;;;18.20;93.80;;;;;;4037110;29;19966;-53
2023/10/06 10:30:56;;;;;;;;;;;18.20;93.80;;;;;;4038439;29;19938;-52
2023/10/06 10:33:38;;;;;;;;;;;18.20;94.20;;;;;;4036215;29;19935;-50
2023/10/06 10:36:19;;;;;;;;;;;18.20;93.90;;;;;;4042532;29;19937;-54
2023/10/06 10:39:04;;;;;;;;;;;18.30;94.30;;;;;;4043334;29;19938;-50
2023/10/06 10:41:45;;;;;;;;;;;18.30;93.90;;;;;;4043501;29;19935;-54
2023/10/06 10:44:26;;;;;;;;;;;18.30;93.90;;;;;;4031283;29;19987;-46
2023/10/06 10:47:09;;;;;;;;;;;18.30;93.80;;;;;;4042316;29;20344;-48
2023/10/06 10:49:51;;;;;;;;;;;18.40;93.90;;;;;;4013923;29;19935;-49
2023/10/06 10:52:33;;;;;;;;;;;18.40;93.90;;;;;;4039110;29;20018;-49
2023/10/06 10:55:23;;;;;;;;;;;18.40;93.90;;;;;;4036263;29;19966;-49
2023/10/06 10:58:04;;;;;;;;;;;18.40;93.90;;;;;;4043218;29;20512;-51
2023/10/06 11:00:59;;;;;;;;;;;18.50;93.80;;;;;;4040879;29;19939;-52
2023/10/06 11:03:41;;;;;;;;;;;18.50;93.90;;;;;;4037529;29;20014;-49
2023/10/06 11:06:23;;;;;;;;;;;18.50;93.80;;;;;;4029121;29;19935;-49
2023/10/06 11:09:12;;;;;;;;;;;18.50;93.80;;;;;;4041600;29;19934;-55
2023/10/06 11:11:56;;;;;;;;;;;18.50;93.80;;;;;;4031631;29;19982;-46
2023/10/06 11:14:52;;;;;;;;;;;18.50;93.80;;;;;;4041896;29;19986;-49
2023/10/06 11:17:34;;;;;;;;;;;18.50;93.70;;;;;;4041284;29;20031;-51
2023/10/06 11:20:21;;;;;;;;;;;18.60;93.90;;;;;;4035883;29;19950;-54
2023/10/06 11:23:03;;;;;;;;;;;18.60;93.90;;;;;;4036142;29;19950;-53
2023/10/06 11:25:48;;;;;;;;;;;18.70;94.00;;;;;;4028627;29;19934;-52
2023/10/06 11:28:41;;;;;;;;;;;18.70;93.90;;;;;;4033194;29;19975;-46
2023/10/06 11:31:23;;;;;;;;;;;18.70;93.90;;;;;;4037812;29;19938;-48
2023/10/06 11:34:04;;;;;;;;;;;18.70;93.90;;;;;;4039632;29;20051;-47
2023/10/06 11:36:46;;;;;;;;;;;18.80;93.90;;;;;;4035980;29;20063;-46
2023/10/06 11:39:29;;;;;;;;;;;18.80;94.30;;;;;;4041346;29;19951;-48
2023/10/06 11:42:29;;;;;;;;;;;18.80;93.90;;;;;;4026336;29;20299;-48
2023/10/06 11:45:24;;;;;;;;;;;18.80;93.80;;;;;;4038427;29;20749;-47
2023/10/06 11:48:06;;;;;;;;;;;18.90;93.80;;;;;;4037031;29;19977;-46
2023/10/06 11:50:47;;;;;;;;;;;18.90;93.70;;;;;;4037169;29;19948;-48
2023/10/06 11:53:27;;;;;;;;;;;18.90;93.70;;;;;;4035086;29;19938;-51
2023/10/06 11:56:09;;;;;;;;;;;18.90;94.00;;;;;;4041767;29;19935;-52
2023/10/06 11:58:52;;;;;;;;;;;18.90;93.50;;;;;;4037757;29;24101;-51
2023/10/06 12:01:36;;;;;;;;;;;19.00;93.60;;;;;;4036027;29;20114;-52
2023/10/06 12:04:26;;;;;;;;;;;19.00;93.50;;;;;;4040242;29;19980;-52
2023/10/06 12:07:08;;;;;;;;;;;19.00;93.50;;;;;;4040783;29;19994;-51
2023/10/06 12:09:49;;;;;;;;;;;19.00;93.40;;;;;;4038661;29;19935;-52
2023/10/06 12:12:29;;;;;;;;;;;19.10;93.40;;;;;;4037579;29;19938;-48
2023/10/06 12:15:13;;;;;;;;;;;19.00;93.40;;;;;;4041069;29;20259;-52
2023/10/06 12:17:56;;;;;;;;;;;19.10;93.50;;;;;;4039248;29;19935;-52
2023/10/06 12:20:36;;;;;;;;;;;19.10;93.50;;;;;;4039781;29;19965;-51
2023/10/06 12:23:18;;;;;;;;;;;19.10;93.40;;;;;;4036895;29;19937;-49
2023/10/06 12:25:59;;;;;;;;;;;19.10;93.40;;;;;;4040578;29;20291;-49
2023/10/06 12:28:42;;;;;;;;;;;19.20;93.40;;;;;;4028590;29;19939;-50
2023/10/06 12:31:23;;;;;;;;;;;19.20;93.40;;;;;;4039643;29;19982;-47
2023/10/06 12:34:05;;;;;;;;;;;19.20;93.40;;;;;;4034514;29;20276;-49
2023/10/06 12:36:47;;;;;;;;;;;19.20;93.70;;;;;;4036707;29;19938;-48
2023/10/06 12:39:34;;;;;;;;;;;19.20;93.30;;;;;;4041250;29;19978;-50
2023/10/06 12:42:16;;;;;;;;;;;19.30;93.30;;;;;;4037061;29;20394;-48
2023/10/06 12:44:57;;;;;;;;;;;19.30;93.30;;;;;;4035254;29;19938;-47
2023/10/06 12:47:38;;;;;;;;;;;19.30;93.30;;;;;;4031250;29;20107;-46
2023/10/06 12:50:21;;;;;;;;;;;19.30;93.20;;;;;;4037668;29;19939;-47
2023/10/06 12:53:02;;;;;;;;;;;19.30;93.10;;;;;;4035945;29;20090;-47
2023/10/06 12:55:43;;;;;;;;;;;19.40;93.10;;;;;;4042062;29;20031;-50
2023/10/06 12:58:24;;;;;;;;;;;19.40;93.10;;;;;;4035185;29;20478;-48
2023/10/06 13:01:07;;;;;;;;;;;19.40;93.10;;;;;;4036557;29;19950;-47
2023/10/06 13:03:48;;;;;;;;;;;19.40;93.10;;;;;;4034569;29;19947;-48
2023/10/06 13:06:30;;;;;;;;;;;19.40;93.00;;;;;;4025086;29;19935;-46
2023/10/06 13:09:20;;;;;;;;;;;19.40;93.00;;;;;;4023638;29;20658;-48
2023/10/06 13:12:03;;;;;;;;;;;19.40;93.00;;;;;;4022146;29;19973;-50
2023/10/06 13:14:44;;;;;;;;;;;19.40;93.00;;;;;;4020522;29;20087;-51
2023/10/06 13:17:25;;;;;;;;;;;19.40;93.00;;;;;;4026198;29;19934;-53
2023/10/06 13:20:09;;;;;;;;;;;19.40;93.10;;;;;;4026140;29;19934;-50
2023/10/06 13:22:51;;;;;;;;;;;19.40;93.20;;;;;;4022458;29;20003;-50
2023/10/06 13:25:33;;;;;;;;;;;19.40;93.20;;;;;;4020177;29;19939;-47
2023/10/06 13:28:16;;;;;;;;;;;19.50;93.20;;;;;;4025693;29;20586;-47
2023/10/06 13:30:57;;;;;;;;;;;19.50;93.60;;;;;;4025516;29;20311;-53
2023/10/06 13:33:37;;;;;;;;;;;19.50;93.10;;;;;;4021901;29;19950;-50
2023/10/06 13:36:19;;;;;;;;;;;19.50;93.10;;;;;;4029137;29;19942;-52
2023/10/06 13:39:01;;;;;;;;;;;19.50;93.10;;;;;;4026072;29;19939;-50
2023/10/06 13:41:42;;;;;;;;;;;19.50;93.10;;;;;;4028191;29;19943;-49
2023/10/06 13:44:23;;;;;;;;;;;19.60;93.10;;;;;;4028275;29;19939;-51
2023/10/06 13:47:06;;;;;;;;;;;19.60;93.50;;;;;;4028840;29;19939;-49
2023/10/06 13:49:53;;;;;;;;;;;19.60;93.00;;;;;;4032269;29;19934;-50
2023/10/06 13:52:34;;;;;;;;;;;19.60;92.90;;;;;;4023228;29;19950;-53
2023/10/06 13:55:17;;;;;;;;;;;19.60;92.80;;;;;;4028819;29;20019;-52
2023/10/06 13:58:01;;;;;;;;;;;19.60;92.70;;;;;;4027226;29;20056;-49
2023/10/06 14:00:42;;;;;;;;;;;19.60;92.60;;;;;;4024853;29;19938;-52
2023/10/06 14:03:24;;;;;;;;;;;19.60;92.60;;;;;;4022566;29;19939;-49
2023/10/06 14:06:07;;;;;;;;;;;19.60;93.00;;;;;;4027231;29;19970;-48
2023/10/06 14:08:48;;;;;;;;;;;19.60;92.50;;;;;;4027431;29;19955;-48
2023/10/06 14:11:30;;;;;;;;;;;19.60;92.50;;;;;;4024440;29;19935;-50
2023/10/06 14:14:36;;;;;;;;;;;19.60;92.50;;;;;;4023073;29;19935;-48
2023/10/06 14:17:19;;;;;;;;;;;19.50;92.50;;;;;;4023964;29;19991;-49
2023/10/06 14:20:10;;;;;;;;;;;19.50;92.50;;;;;;4028712;29;20399;-51
2023/10/06 14:22:57;;;;;;;;;;;19.50;92.50;;;;;;4026061;29;19939;-51
2023/10/06 14:25:38;;;;;;;;;;;19.50;92.50;;;;;;4026056;29;19935;-50
2023/10/06 14:28:22;;;;;;;;;;;19.50;92.50;;;;;;4024003;29;19934;-49
2023/10/06 14:31:09;;;;;;;;;;;19.50;92.50;;;;;;4029528;29;19934;-49
2023/10/06 14:33:57;;;;;;;;;;;19.50;92.60;;;;;;4028219;29;19950;-49
2023/10/06 14:36:39;;;;;;;;;;;19.40;93.00;;;;;;4028019;29;20419;-50
2023/10/06 14:48:16;;;;;;;;;;;19.40;92.60;;;;;;4025111;29;21490;-48
2023/10/06 14:50:58;;;;;;;;;;;19.40;92.70;;;;;;4013035;29;19935;-51
2023/10/06 14:53:39;;;;;;;;;;;19.30;92.60;;;;;;4026209;29;19935;-50
2023/10/06 14:56:20;;;;;;;;;;;19.40;92.60;;;;;;4010654;29;20329;-47
2023/10/06 14:59:01;;;;;;;;;;;19.30;92.70;;;;;;4022744;29;20395;-50
2023/10/06 15:01:43;;;;;;;;;;;19.40;92.70;;;;;;4026413;29;19983;-47
2023/10/06 15:04:24;;;;;;;;;;;19.30;93.10;;;;;;4028434;29;20039;-51
2023/10/06 15:07:05;;;;;;;;;;;19.30;92.80;;;;;;4040268;29;20394;-50
2023/10/06 15:09:45;;;;;;;;;;;19.30;92.80;;;;;;4037938;29;20594;-48
2023/10/06 15:12:26;;;;;;;;;;;19.30;92.80;;;;;;4043021;29;20063;-48
2023/10/06 15:15:15;;;;;;;;;;;19.30;92.80;;;;;;4041157;29;19938;-48
2023/10/06 15:17:57;;;;;;;;;;;19.30;92.80;;;;;;4039973;29;19935;-51
2023/10/06 15:20:55;;;;;;;;;;;19.30;92.90;;;;;;4041430;29;19951;-51
2023/10/06 15:23:36;;;;;;;;;;;19.30;92.90;;;;;;4037891;29;19937;-51
2023/10/06 15:26:18;;;;;;;;;;;19.30;93.00;;;;;;4035372;29;19962;-52
2023/10/06 15:28:58;;;;;;;;;;;19.30;93.10;;;;;;4041450;29;19938;-48
2023/10/06 15:31:39;;;;;;;;;;;19.30;93.10;;;;;;4038206;29;19959;-57
2023/10/06 15:34:21;;;;;;;;;;;19.30;93.20;;;;;;4036397;29;19939;-56
2023/10/06 15:37:02;;;;;;;;;;;19.20;93.20;;;;;;4036018;29;19934;-56
2023/10/06 15:39:42;;;;;;;;;;;19.20;93.20;;;;;;4039460;29;19938;-57
2023/10/06 15:42:23;;;;;;;;;;;19.20;93.50;;;;;;4019050;29;20019;-57
2023/10/06 15:45:04;;;;;;;;;;;19.20;93.20;;;;;;4015599;29;19934;-58
2023/10/06 15:47:46;;;;;;;;;;;19.20;93.20;;;;;;4038426;29;19934;-57
2023/10/06 15:50:28;;;;;;;;;;;19.20;93.10;;;;;;4041897;29;20067;-56
2023/10/06 15:53:09;;;;;;;;;;;19.20;93.20;;;;;;4037866;29;19987;-56
2023/10/06 15:55:50;;;;;;;;;;;19.20;93.30;;;;;;4024347;29;19935;-55
2023/10/06 15:58:32;;;;;;;;;;;19.20;93.30;;;;;;4041294;29;20071;-57